Time;durP1;ratioP1;P1;durP2;ratioP2;P2;SDS_P1;SDS_P2;PMS_P1;PMS_P2;Temp;Humidity;BMP_temperature;BMP_pressure;BME280_temperature;BME280_humidity;BME280_pressure;Samples;Min_cycle;Max_cycle;Signal;HPM_P1;HPM_P2
2023/08/31 00:02:14;;;;;;;15.07;11.00;;;;;;;20.74;73.08;96992.94;10373039;28;20125;-54
2023/08/31 00:07:13;;;;;;;16.13;12.50;;;;;;;20.77;72.91;97003.31;10365815;28;20033;-55
2023/08/31 00:12:12;;;;;;;16.00;11.98;;;;;;;20.67;72.89;96990.63;10348078;28;20421;-54
2023/08/31 00:17:11;;;;;;;15.57;12.38;;;;;;;20.85;72.79;97022.22;10381444;28;20040;-54
2023/08/31 00:22:10;;;;;;;15.98;12.50;;;;;;;20.67;72.97;97003.81;10368734;28;20124;-54
2023/08/31 00:27:10;;;;;;;15.70;12.80;;;;;;;20.59;73.85;97010.44;10363864;28;20033;-55
2023/08/31 00:32:09;;;;;;;14.85;12.50;;;;;;;20.53;74.57;97021.31;10362533;28;20053;-55
2023/08/31 00:37:08;;;;;;;25.10;14.63;;;;;;;20.42;75.29;97030.66;10388166;28;20035;-55
2023/08/31 00:42:07;;;;;;;20.15;14.98;;;;;;;20.34;75.41;97029.28;10363244;28;20468;-54
2023/08/31 00:47:07;;;;;;;27.88;16.20;;;;;;;20.30;75.39;97031.22;10362701;28;20116;-55
2023/08/31 00:52:06;;;;;;;20.23;15.15;;;;;;;20.26;75.69;97030.53;10368358;28;20491;-54
2023/08/31 00:57:05;;;;;;;22.23;14.55;;;;;;;20.25;75.81;97028.81;10380741;28;20095;-55
2023/08/31 01:02:08;;;;;;;17.23;14.15;;;;;;;20.20;76.13;97035.28;10362842;28;20043;-54
2023/08/31 01:07:32;;;;;;;18.70;12.48;;;;;;;20.22;76.19;97038.69;10379734;28;20056;-54
2023/08/31 01:12:37;;;;;;;24.42;15.13;;;;;;;20.19;76.36;97050.22;10363385;28;20083;-54
2023/08/31 01:17:46;;;;;;;23.90;13.98;;;;;;;20.08;77.68;97055.19;10375711;28;20067;-54
2023/08/31 01:23:10;;;;;;;16.80;12.95;;;;;;;19.78;77.88;97058.41;10372514;28;20138;-54
2023/08/31 01:28:11;;;;;;;19.25;14.38;;;;;;;19.42;79.28;97063.66;10379001;28;20068;-54
2023/08/31 01:33:12;;;;;;;20.15;14.90;;;;;;;19.20;80.31;97055.91;10375583;28;20456;-54
2023/08/31 01:38:16;;;;;;;20.20;15.10;;;;;;;19.18;79.59;97049.88;10381476;28;20155;-54
2023/08/31 01:43:17;;;;;;;16.73;14.38;;;;;;;19.16;79.97;97051.75;10375156;28;20231;-54
2023/08/31 01:48:16;;;;;;;20.60;15.73;;;;;;;19.03;80.61;97054.91;10375357;28;20068;-54
2023/08/31 01:53:15;;;;;;;22.02;16.58;;;;;;;18.95;80.71;97038.66;10373365;28;20083;-54
2023/08/31 01:58:14;;;;;;;21.60;16.08;;;;;;;18.74;81.47;97021.25;10376480;28;20444;-54
2023/08/31 02:03:15;;;;;;;20.15;15.70;;;;;;;18.88;81.17;97063.53;10370244;28;20040;-54
2023/08/31 02:08:17;;;;;;;25.55;16.15;;;;;;;18.82;81.15;97064.63;10369335;28;20068;-54
2023/08/31 02:13:16;;;;;;;26.10;17.23;;;;;;;18.80;81.65;97068.25;10369956;28;20060;-54
2023/08/31 02:18:15;;;;;;;20.27;15.90;;;;;;;18.56;81.99;97033.41;10370257;28;20099;-54
2023/08/31 02:23:14;;;;;;;22.08;16.23;;;;;;;18.40;81.98;97020.06;10369901;28;20043;-54
2023/08/31 02:28:19;;;;;;;21.20;15.98;;;;;;;18.67;82.52;97069.72;10369966;28;20033;-54
2023/08/31 02:33:18;;;;;;;20.55;15.75;;;;;;;18.30;85.18;97092.31;10369974;28;20048;-54
2023/08/31 02:38:17;;;;;;;20.20;15.93;;;;;;;18.41;83.57;97105.88;10368612;28;20037;-54
2023/08/31 02:43:16;;;;;;;22.05;16.00;;;;;;;18.20;84.77;97091.88;10369974;28;20025;-54
2023/08/31 02:48:15;;;;;;;20.90;16.05;;;;;;;18.16;84.67;97095.53;10368644;28;20029;-54
2023/08/31 02:53:21;;;;;;;22.48;17.30;;;;;;;18.01;85.64;97115.41;10364232;28;20019;-54
2023/08/31 02:58:22;;;;;;;26.52;18.30;;;;;;;17.95;85.45;97110.41;10365600;28;20086;-54
2023/08/31 03:03:21;;;;;;;25.38;18.73;;;;;;;17.87;85.70;97108.09;10367562;28;20636;-54
2023/08/31 03:08:20;;;;;;;22.63;17.00;;;;;;;17.76;85.66;97094.53;10368579;28;20071;-54
2023/08/31 03:13:24;;;;;;;27.42;17.73;;;;;;;17.85;85.66;97119.59;10367086;28;20107;-54
2023/08/31 03:18:27;;;;;;;23.90;18.60;;;;;;;17.83;85.99;97122.25;10365472;28;20052;-54
2023/08/31 03:23:26;;;;;;;26.08;17.02;;;;;;;17.54;85.70;97060.41;10364815;28;20104;-54
2023/08/31 03:28:28;;;;;;;22.15;17.33;;;;;;;17.79;86.36;97122.44;10366193;28;20059;-54
2023/08/31 03:33:28;;;;;;;26.20;16.83;;;;;;;17.74;86.61;97123.44;10365929;28;20132;-54
2023/08/31 03:38:27;;;;;;;22.63;17.50;;;;;;;17.64;86.84;97127.34;10365876;28;20463;-54
2023/08/31 03:43:26;;;;;;;20.00;15.38;;;;;;;17.60;86.77;97123.13;10365152;28;20100;-54
2023/08/31 03:48:26;;;;;;;21.05;14.50;;;;;;;17.54;86.33;97132.13;10367217;28;20123;-54
2023/08/31 03:53:25;;;;;;;19.33;13.85;;;;;;;17.16;85.86;97141.41;10366597;28;20472;-54
2023/08/31 03:58:29;;;;;;;20.90;14.10;;;;;;;17.14;86.22;97146.75;10365579;28;20088;-54
2023/08/31 04:03:30;;;;;;;16.35;12.48;;;;;;;16.97;85.44;97087.97;10366737;28;20129;-54
2023/08/31 04:08:29;;;;;;;17.00;12.45;;;;;;;17.38;85.27;97167.72;10347578;28;20468;-54
2023/08/31 04:13:30;;;;;;;16.67;10.68;;;;;;;17.47;85.02;97171.72;10365505;28;20379;-54
2023/08/31 04:18:29;;;;;;;15.05;10.68;;;;;;;17.70;84.10;97182.19;10365705;28;20048;-54
2023/08/31 04:23:29;;;;;;;17.60;9.57;;;;;;;17.89;83.04;97184.13;10365261;28;20100;-54
2023/08/31 04:28:27;;;;;;;15.65;10.05;;;;;;;18.11;82.37;97208.63;10364169;28;20136;-54
2023/08/31 04:33:26;;;;;;;14.32;9.73;;;;;;;18.35;80.92;97204.16;10362165;28;20442;-53
2023/08/31 04:38:25;;;;;;;17.30;9.60;;;;;;;18.49;80.25;97219.34;10363416;28;20107;-54
2023/08/31 04:43:24;;;;;;;15.48;9.20;;;;;;;18.72;78.32;97213.16;10364440;28;20029;-53
2023/08/31 04:48:23;;;;;;;14.18;8.52;;;;;;;18.93;77.57;97219.28;10346030;28;20032;-55
2023/08/31 04:53:22;;;;;;;19.77;10.02;;;;;;;19.11;75.28;97220.28;10361303;28;20029;-56
2023/08/31 04:58:21;;;;;;;12.60;10.02;;;;;;;19.15;74.13;97227.06;10360464;28;20131;-57
2023/08/31 05:03:20;;;;;;;14.32;9.43;;;;;;;19.34;72.58;97226.28;10360750;28;20147;-53
2023/08/31 05:08:19;;;;;;;14.50;9.07;;;;;;;19.31;72.84;97232.53;10361935;28;20107;-54
2023/08/31 05:13:18;;;;;;;16.15;10.48;;;;;;;19.23;74.78;97232.03;10360977;28;20017;-54
2023/08/31 05:18:17;;;;;;;17.75;11.85;;;;;;;19.35;75.02;97226.22;10363562;28;20032;-54
2023/08/31 05:23:16;;;;;;;13.90;10.40;;;;;;;19.52;74.90;97221.97;10364009;28;20551;-54
2023/08/31 05:28:15;;;;;;;19.08;10.13;;;;;;;19.79;74.28;97215.47;10367645;28;20056;-54
2023/08/31 05:33:14;;;;;;;18.17;10.40;;;;;;;19.93;72.39;97187.59;10364584;28;20022;-54
2023/08/31 05:38:13;;;;;;;17.13;8.05;;;;;;;20.33;70.82;97206.75;10361831;28;20592;-55
2023/08/31 05:43:13;;;;;;;18.90;8.77;;;;;;;20.62;69.61;97213.25;10361275;28;20824;-54
2023/08/31 05:48:12;;;;;;;15.40;7.45;;;;;;;20.83;68.36;97219.25;10360713;28;20145;-54
2023/08/31 05:53:11;;;;;;;13.05;6.32;;;;;;;21.13;65.99;97209.75;10376794;28;20044;-54
2023/08/31 05:58:10;;;;;;;10.43;5.43;;;;;;;21.26;63.59;97203.84;10360922;28;20080;-54
2023/08/31 06:03:10;;;;;;;9.50;5.47;;;;;;;21.35;62.73;97208.63;10363215;28;20115;-55
2023/08/31 06:08:09;;;;;;;13.50;5.80;;;;;;;21.33;61.79;97207.88;10369532;28;20119;-56
2023/08/31 06:13:08;;;;;;;12.02;6.32;;;;;;;21.05;61.37;97148.59;10370743;28;20403;-55
2023/08/31 06:18:07;;;;;;;13.52;5.78;;;;;;;21.61;58.92;97195.81;10370262;28;20091;-53
2023/08/31 06:23:06;;;;;;;13.32;5.15;;;;;;;21.84;58.31;97207.78;10368920;28;20120;-53
2023/08/31 06:28:08;;;;;;;10.23;5.30;;;;;;;22.16;57.46;97213.94;10373063;28;20108;-54
2023/08/31 06:33:07;;;;;;;13.88;6.00;;;;;;;22.48;56.69;97203.31;10371162;28;20452;-53
2023/08/31 06:38:09;;;;;;;17.40;5.35;;;;;;;22.94;55.51;97222.66;10369183;28;20435;-54
2023/08/31 06:43:08;;;;;;;13.02;5.68;;;;;;;23.23;54.51;97230.63;10370116;28;20443;-53
2023/08/31 06:48:08;;;;;;;9.27;4.72;;;;;;;23.47;53.20;97233.63;10372599;28;20865;-53
2023/08/31 06:53:07;;;;;;;7.30;4.00;;;;;;;23.69;51.44;97229.66;10370999;28;20503;-53
2023/08/31 06:58:06;;;;;;;8.75;3.15;;;;;;;23.90;47.95;97235.41;10368575;28;20052;-54
2023/08/31 07:03:07;;;;;;;9.27;3.35;;;;;;;24.13;46.29;97237.44;10369838;28;20499;-54
2023/08/31 07:08:06;;;;;;;4.78;2.50;;;;;;;24.43;42.89;97239.09;10365031;28;20111;-53
2023/08/31 07:13:05;;;;;;;6.45;2.80;;;;;;;24.55;41.52;97237.44;10360914;28;20115;-54
2023/08/31 07:18:05;;;;;;;6.90;3.38;;;;;;;24.72;40.34;97239.81;10364187;28;20033;-54
2023/08/31 07:23:04;;;;;;;7.57;2.97;;;;;;;24.98;40.89;97247.88;10364167;28;20104;-54
2023/08/31 07:28:03;;;;;;;4.85;2.60;;;;;;;25.09;39.95;97248.00;10371856;28;20029;-54
2023/08/31 07:33:03;;;;;;;4.80;2.65;;;;;;;25.14;39.62;97224.63;10373190;28;20112;-54
2023/08/31 07:38:03;;;;;;;5.53;3.15;;;;;;;25.51;39.40;97248.66;10385916;28;20070;-54
2023/08/31 07:43:03;;;;;;;6.72;3.85;;;;;;;25.73;39.60;97232.91;10368583;28;20056;-54
2023/08/31 07:48:03;;;;;;;6.50;3.25;;;;;;;26.01;39.43;97252.22;10368816;28;20075;-54
2023/08/31 07:53:03;;;;;;;6.35;3.10;;;;;;;25.77;37.69;97227.41;10387570;28;20075;-54
2023/08/31 07:58:02;;;;;;;7.70;3.40;;;;;;;25.62;36.35;97251.44;10391658;28;20128;-55
2023/08/31 08:03:01;;;;;;;8.25;4.28;;;;;;;25.91;37.84;97248.53;10368185;28;20121;-55
2023/08/31 08:08:00;;;;;;;6.05;3.22;;;;;;;25.82;36.70;97255.34;10388080;28;20025;-55
2023/08/31 08:12:59;;;;;;;7.60;3.72;;;;;;;26.23;35.85;97248.91;10368696;28;20028;-55
2023/08/31 08:17:58;;;;;;;6.80;2.90;;;;;;;26.38;34.87;97249.59;10362278;28;20040;-55
2023/08/31 08:22:58;;;;;;;6.47;3.33;;;;;;;26.74;34.66;97250.47;10363019;28;20076;-55
2023/08/31 08:27:57;;;;;;;7.95;3.13;;;;;;;26.78;34.01;97250.13;10360337;28;20550;-55
2023/08/31 08:32:57;;;;;;;8.63;3.20;;;;;;;26.90;34.40;97228.91;10372624;28;20031;-55
2023/08/31 08:37:56;;;;;;;10.20;3.63;;;;;;;27.23;33.25;97238.81;10365465;28;20738;-54
2023/08/31 08:42:56;;;;;;;6.43;3.60;;;;;;;27.43;32.69;97221.28;10360351;28;20836;-54
2023/08/31 08:47:57;;;;;;;8.20;3.72;;;;;;;27.49;32.37;97228.81;10366094;28;20065;-56
2023/08/31 08:52:56;;;;;;;7.80;3.72;;;;;;;27.53;32.65;97224.09;10365960;28;20059;-54
2023/08/31 08:57:56;;;;;;;7.40;4.57;;;;;;;27.25;31.66;97183.59;10376447;28;20081;-55
2023/08/31 09:02:56;;;;;;;7.40;4.05;;;;;;;27.67;30.50;97225.69;10359519;28;20056;-55
2023/08/31 09:08:12;;;;;;;8.30;3.90;;;;;;;27.67;31.01;97229.19;10361606;28;20137;-55
2023/08/31 09:13:13;;;;;;;9.35;4.57;;;;;;;27.79;31.11;97230.03;10369086;28;20112;-55
2023/08/31 09:18:29;;;;;;;7.82;4.20;;;;;;;27.90;30.24;97226.53;10359827;28;20120;-55
2023/08/31 09:23:28;;;;;;;8.80;4.35;;;;;;;28.00;29.95;97216.81;10359130;28;20112;-55
2023/08/31 09:28:28;;;;;;;7.53;4.32;;;;;;;28.04;29.49;97211.09;10360230;28;20112;-55
2023/08/31 09:33:49;;;;;;;8.95;4.38;;;;;;;28.11;29.90;97214.16;10372120;28;20040;-55
2023/08/31 09:38:48;;;;;;;7.95;4.55;;;;;;;28.33;29.05;97191.06;10375094;28;20457;-55
2023/08/31 09:43:47;;;;;;;11.30;4.97;;;;;;;28.83;29.54;97210.06;10367371;28;20120;-55
2023/08/31 09:48:47;;;;;;;10.40;4.10;;;;;;;29.44;29.56;97207.53;10367908;28;20043;-55
2023/08/31 09:53:48;;;;;;;6.28;3.83;;;;;;;29.41;27.73;97220.28;10367552;28;20100;-55
2023/08/31 09:58:48;;;;;;;7.65;4.25;;;;;;;29.71;28.49;97222.13;10368388;28;20128;-55
2023/08/31 10:03:47;;;;;;;8.25;4.20;;;;;;;30.19;27.63;97220.63;10367158;28;20104;-55
2023/08/31 10:08:46;;;;;;;6.28;3.47;;;;;;;30.12;27.84;97223.03;10365332;28;20099;-55
2023/08/31 10:13:48;;;;;;;7.35;4.50;;;;;;;30.46;26.70;97217.31;10369754;28;20100;-55
2023/08/31 10:18:48;;;;;;;6.25;3.97;;;;;;;30.91;26.89;97216.75;10373958;28;20129;-55
2023/08/31 10:23:48;;;;;;;7.82;4.57;;;;;;;31.36;26.33;97214.34;10387588;28;20104;-55
2023/08/31 10:28:47;;;;;;;9.07;4.60;;;;;;;31.59;25.56;97227.41;10364859;28;20056;-60
2023/08/31 10:34:03;;;;;;;8.00;4.70;;;;;;;31.00;24.96;97229.34;10357374;28;20155;-56
2023/08/31 10:39:13;;;;;;;5.95;3.97;;;;;;;30.54;26.17;97228.19;10365625;28;20117;-53
2023/08/31 10:44:32;;;;;;;7.93;4.13;;;;;;;30.53;26.54;97221.13;10363829;28;20119;-53
2023/08/31 10:49:36;;;;;;;5.35;3.97;;;;;;;30.27;26.79;97224.31;10351623;28;20522;-54
2023/08/31 10:54:37;;;;;;;6.95;4.32;;;;;;;30.32;26.10;97189.94;10343942;28;20056;-54
2023/08/31 10:59:53;;;;;;;6.70;3.95;;;;;;;30.02;26.34;97219.47;10370882;28;20151;-55
2023/08/31 11:04:54;;;;;;;10.13;4.90;;;;;;;30.20;26.29;97235.72;10364168;28;20144;-54
2023/08/31 11:10:11;;;;;;;9.00;4.63;;;;;;;30.22;26.34;97180.22;10375211;28;20111;-55
2023/08/31 11:15:13;;;;;;;7.70;4.50;;;;;;;30.51;25.48;97239.16;10364178;28;20123;-55
2023/08/31 11:20:19;;;;;;;7.45;4.70;;;;;;;30.69;25.12;97224.09;10364298;28;20065;-55
2023/08/31 11:25:18;;;;;;;7.03;4.25;;;;;;;30.84;24.92;97226.34;10386906;28;20143;-55
2023/08/31 11:30:17;;;;;;;9.00;4.72;;;;;;;30.91;25.63;97214.94;10371750;28;20064;-55
2023/08/31 11:35:18;;;;;;;6.68;4.35;;;;;;;30.93;25.32;97209.44;10368979;28;20112;-54
2023/08/31 11:40:17;;;;;;;7.57;4.45;;;;;;;31.23;23.74;97199.53;10386841;28;20111;-54
2023/08/31 11:45:17;;;;;;;7.40;4.32;;;;;;;31.09;23.87;97201.69;10363917;28;20895;-55
2023/08/31 11:50:17;;;;;;;6.10;4.10;;;;;;;30.91;24.01;97195.31;10365325;28;20180;-55
2023/08/31 11:55:20;;;;;;;6.68;4.55;;;;;;;30.28;24.34;97151.06;10365602;28;20129;-55
2023/08/31 12:00:21;;;;;;;6.72;4.32;;;;;;;31.17;25.59;97193.78;10372357;28;20829;-55
2023/08/31 12:05:20;;;;;;;7.55;4.22;;;;;;;31.56;23.57;97193.69;10362442;28;20449;-55
2023/08/31 12:10:19;;;;;;;13.38;6.72;;;;;;;31.12;24.14;97196.06;10344944;28;20436;-55
2023/08/31 12:15:18;;;;;;;6.70;3.75;;;;;;;30.47;26.65;97209.16;10362109;28;20108;-55
2023/08/31 12:20:17;;;;;;;8.50;4.10;;;;;;;29.98;27.86;97194.81;10365565;28;20211;-55
2023/08/31 12:25:21;;;;;;;9.13;3.80;;;;;;;29.68;28.56;97193.84;10360799;28;20127;-55
2023/08/31 12:30:20;;;;;;;8.23;3.60;;;;;;;29.54;28.33;97193.38;10359806;28;20120;-55
2023/08/31 12:35:19;;;;;;;6.53;3.97;;;;;;;29.35;28.56;97154.03;10365650;28;20131;-55
2023/08/31 12:40:19;;;;;;;8.38;4.35;;;;;;;29.63;28.24;97193.41;10371813;28;20056;-55
2023/08/31 12:45:19;;;;;;;7.80;4.03;;;;;;;29.88;27.78;97186.78;10361438;28;20083;-56
2023/08/31 12:50:18;;;;;;;8.10;3.47;;;;;;;29.30;29.41;97213.22;10343107;28;20064;-55
2023/08/31 12:55:17;;;;;;;6.90;2.97;;;;;;;28.36;31.51;97174.78;10360796;28;20028;-55
2023/08/31 13:00:17;;;;;;;8.48;2.33;;;;;;;28.19;33.24;97233.03;10357721;28;20128;-55
2023/08/31 13:05:16;;;;;;;5.93;2.30;;;;;;;28.33;33.69;97228.41;10369916;28;20119;-55
2023/08/31 13:10:15;;;;;;;7.57;2.40;;;;;;;27.87;34.14;97194.75;10369170;28;20112;-56
2023/08/31 13:15:14;;;;;;;5.97;2.35;;;;;;;28.19;33.35;97229.53;10357982;28;20031;-55
2023/08/31 13:20:13;;;;;;;4.13;1.85;;;;;;;27.89;34.14;97214.16;10356985;28;20120;-55
2023/08/31 13:25:12;;;;;;;5.65;2.22;;;;;;;27.78;33.93;97213.19;10358240;28;20670;-54
2023/08/31 13:30:12;;;;;;;8.05;2.65;;;;;;;27.94;33.78;97218.16;10354254;28;20158;-55
2023/08/31 13:35:11;;;;;;;4.68;2.65;;;;;;;28.05;33.25;97219.94;10357712;28;20627;-55
2023/08/31 13:40:11;;;;;;;4.55;2.42;;;;;;;27.80;33.25;97210.41;10353133;28;20021;-55
2023/08/31 13:45:10;;;;;;;6.53;2.92;;;;;;;28.12;32.94;97226.50;10351423;28;20150;-54
2023/08/31 13:50:09;;;;;;;5.60;2.60;;;;;;;27.75;32.39;97173.47;10356258;28;20116;-54
2023/08/31 13:55:08;;;;;;;7.88;2.97;;;;;;;28.32;32.44;97198.22;10349842;28;20120;-55
2023/08/31 14:00:11;;;;;;;6.35;2.95;;;;;;;28.94;31.26;97223.34;10331607;28;20203;-54
2023/08/31 14:05:10;;;;;;;5.07;2.47;;;;;;;29.00;31.74;97216.66;10355239;28;20120;-56
2023/08/31 14:10:09;;;;;;;4.45;2.60;;;;;;;29.03;31.99;97222.56;10357150;28;20108;-56
2023/08/31 14:15:08;;;;;;;4.35;2.47;;;;;;;28.73;32.63;97225.16;10355769;28;20321;-55
2023/08/31 14:20:09;;;;;;;4.78;2.47;;;;;;;28.65;32.11;97233.78;10356556;28;20064;-55
2023/08/31 14:25:14;;;;;;;8.15;2.92;;;;;;;28.50;32.43;97251.91;10360425;28;20550;-55
2023/08/31 14:30:15;;;;;;;5.30;2.50;;;;;;;28.19;32.92;97253.53;10362052;28;20067;-55
2023/08/31 14:35:16;;;;;;;6.10;2.42;;;;;;;28.03;33.28;97219.22;10361536;28;20067;-55
2023/08/31 14:40:15;;;;;;;6.20;2.83;;;;;;;28.06;33.71;97253.66;10359884;28;20096;-55
2023/08/31 14:45:14;;;;;;;6.72;2.63;;;;;;;27.97;33.88;97241.06;10364575;28;20116;-55
2023/08/31 14:50:13;;;;;;;6.10;3.08;;;;;;;28.02;33.74;97258.38;10363355;28;20037;-55
2023/08/31 14:55:22;;;;;;;5.47;2.63;;;;;;;27.90;33.47;97267.38;10360370;28;20104;-57
2023/08/31 15:00:23;;;;;;;5.07;2.30;;;;;;;27.79;34.43;97267.38;10370575;28;20140;-56
2023/08/31 15:05:25;;;;;;;10.88;9.77;;;;;;;27.58;34.26;97270.75;10363628;28;20771;-55
2023/08/31 15:10:24;;;;;;;5.00;3.55;;;;;;;27.38;34.10;97277.59;10363369;28;20448;-56
2023/08/31 15:15:23;;;;;;;10.27;4.38;;;;;;;27.28;34.25;97283.72;10363991;28;20415;-55
2023/08/31 15:20:24;;;;;;;10.13;5.70;;;;;;;27.02;35.32;97289.22;10361228;28;20124;-55
2023/08/31 15:25:26;;;;;;;6.85;3.33;;;;;;;26.96;35.87;97290.56;10359790;28;20149;-55
2023/08/31 15:30:25;;;;;;;9.35;6.10;;;;;;;26.65;36.36;97276.00;10355387;28;20112;-54
2023/08/31 15:35:31;;;;;;;8.82;3.88;;;;;;;26.31;37.33;97301.53;10359963;28;20103;-56
2023/08/31 15:40:30;;;;;;;7.75;4.10;;;;;;;26.00;37.83;97316.16;10360755;28;20107;-54
2023/08/31 15:45:30;;;;;;;5.68;3.10;;;;;;;25.57;39.08;97314.66;10346685;28;20122;-60
2023/08/31 15:50:30;;;;;;;9.45;4.68;;;;;;;25.14;39.64;97291.00;10357889;28;20107;-56
2023/08/31 15:55:28;;;;;;;10.18;5.78;;;;;;;24.98;39.81;97285.03;10360659;28;20116;-59
2023/08/31 16:00:29;;;;;;;10.48;4.28;;;;;;;25.02;40.22;97337.81;10345735;28;20041;-55
2023/08/31 16:05:52;;;;;;;7.15;3.88;;;;;;;24.84;43.34;97373.50;10362397;28;20582;-60
2023/08/31 16:10:51;;;;;;;11.25;4.50;;;;;;;24.75;43.64;97388.19;10353041;28;20108;-56
2023/08/31 16:15:51;;;;;;;17.05;6.35;;;;;;;24.54;44.98;97393.06;10329578;28;20047;-54
2023/08/31 16:20:50;;;;;;;10.18;5.18;;;;;;;23.92;46.65;97398.66;10358926;28;20107;-54
2023/08/31 16:25:50;;;;;;;7.35;3.88;;;;;;;23.73;46.16;97363.63;10366319;28;20021;-54
2023/08/31 16:30:49;;;;;;;5.55;3.50;;;;;;;24.03;46.28;97409.47;10361498;28;20107;-55
2023/08/31 16:35:55;;;;;;;7.85;3.55;;;;;;;24.13;46.29;97411.56;10368779;28;20021;-54
2023/08/31 16:40:55;;;;;;;6.70;3.55;;;;;;;24.07;46.25;97410.13;10338406;28;20128;-54
2023/08/31 16:45:54;;;;;;;8.23;3.97;;;;;;;24.15;46.69;97422.91;10360950;28;20120;-54
2023/08/31 16:50:53;;;;;;;7.28;3.28;;;;;;;23.91;46.66;97404.91;10372166;28;20147;-54
2023/08/31 16:55:52;;;;;;;6.70;2.92;;;;;;;24.05;46.36;97438.50;10377486;28;20025;-54
2023/08/31 17:00:51;;;;;;;6.13;3.33;;;;;;;23.77;46.33;97412.81;10354371;28;20124;-54
2023/08/31 17:05:54;;;;;;;7.38;3.35;;;;;;;23.92;46.78;97443.72;10365285;28;20108;-54
2023/08/31 17:10:53;;;;;;;8.20;4.20;;;;;;;23.87;47.14;97444.94;10360345;28;20111;-54
2023/08/31 17:15:52;;;;;;;7.55;4.00;;;;;;;23.85;47.14;97452.97;10362417;28;20440;-55
2023/08/31 17:20:51;;;;;;;6.78;3.75;;;;;;;23.76;47.69;97458.81;10361862;28;20484;-55
2023/08/31 17:25:50;;;;;;;10.65;4.07;;;;;;;23.67;47.73;97456.72;10373761;28;20039;-54
2023/08/31 17:30:50;;;;;;;7.40;3.70;;;;;;;23.65;48.27;97467.38;10374771;28;20029;-54
2023/08/31 17:35:51;;;;;;;15.57;9.23;;;;;;;23.52;48.62;97483.16;10363560;28;20453;-54
2023/08/31 17:40:50;;;;;;;8.30;4.20;;;;;;;23.46;48.65;97472.03;10372787;28;20056;-56
2023/08/31 17:45:49;;;;;;;9.30;4.35;;;;;;;23.36;50.07;97492.88;10370293;28;20029;-55
2023/08/31 17:50:48;;;;;;;15.98;5.63;;;;;;;23.14;52.88;97499.41;10361774;28;20051;-54
2023/08/31 17:55:47;;;;;;;9.65;4.70;;;;;;;22.91;55.43;97510.41;10344277;28;20120;-54
2023/08/31 18:00:51;;;;;;;13.75;4.47;;;;;;;22.69;56.12;97500.94;10353100;28;20124;-54
2023/08/31 18:05:51;;;;;;;12.35;4.70;;;;;;;22.59;57.14;97513.81;10381969;28;20061;-54
2023/08/31 18:10:52;;;;;;;16.55;6.82;;;;;;;22.45;58.21;97511.03;10383359;28;20450;-55
2023/08/31 18:15:51;;;;;;;9.88;5.18;;;;;;;22.09;60.94;97484.75;10368463;28;21154;-54
2023/08/31 18:20:50;;;;;;;10.38;4.93;;;;;;;22.19;60.79;97517.69;10373565;28;20413;-54
2023/08/31 18:25:49;;;;;;;13.90;4.78;;;;;;;21.89;61.09;97507.72;10353940;28;20037;-54
2023/08/31 18:30:56;;;;;;;10.55;4.10;;;;;;;21.76;62.02;97533.06;10376669;28;20550;-54
2023/08/31 18:35:57;;;;;;;12.95;4.10;;;;;;;21.62;62.10;97535.53;10383234;28;20503;-54
2023/08/31 18:40:56;;;;;;;6.53;3.35;;;;;;;21.50;61.99;97521.13;10356210;28;20068;-54
2023/08/31 18:45:55;;;;;;;9.57;3.90;;;;;;;21.29;62.04;97510.69;10365083;28;20131;-53
2023/08/31 18:50:59;;;;;;;6.78;3.72;;;;;;;21.29;62.37;97542.38;10368135;28;20456;-53
2023/08/31 18:56:03;;;;;;;9.10;3.90;;;;;;;21.21;63.07;97552.41;10382039;28;20057;-55
2023/08/31 19:01:02;;;;;;;9.40;4.57;;;;;;;21.09;64.46;97560.88;10367355;28;20140;-55
2023/08/31 19:06:02;;;;;;;9.55;4.93;;;;;;;20.98;65.42;97565.78;10365323;28;20124;-54
2023/08/31 19:11:08;;;;;;;9.55;4.45;;;;;;;20.84;66.68;97567.28;10365744;28;20115;-53
2023/08/31 19:16:08;;;;;;;10.23;4.18;;;;;;;20.61;68.10;97578.00;10362647;28;20477;-52
2023/08/31 19:21:07;;;;;;;8.57;4.35;;;;;;;20.08;70.66;97553.03;10363254;28;20128;-54
2023/08/31 19:26:14;;;;;;;8.80;4.50;;;;;;;19.97;72.35;97590.34;10361668;28;20121;-55
2023/08/31 19:31:13;;;;;;;7.32;4.20;;;;;;;19.83;74.73;97590.91;10361874;28;20108;-54
2023/08/31 19:36:12;;;;;;;8.25;5.30;;;;;;;19.34;78.97;97598.09;10361437;28;20021;-54
2023/08/31 19:41:12;;;;;;;9.20;4.82;;;;;;;19.33;77.69;97609.56;10359053;28;20112;-54
2023/08/31 19:46:11;;;;;;;7.88;4.25;;;;;;;19.19;76.65;97577.66;10361846;28;20569;-54
2023/08/31 19:51:10;;;;;;;12.82;4.82;;;;;;;19.20;75.76;97584.63;10360858;28;20060;-54
2023/08/31 19:56:09;;;;;;;12.38;6.70;;;;;;;19.19;75.49;97612.72;10361222;28;20104;-56
2023/08/31 20:01:08;;;;;;;9.40;4.70;;;;;;;19.02;74.82;97615.13;10376131;28;20140;-58
2023/08/31 20:06:07;;;;;;;10.13;5.18;;;;;;;18.75;76.12;97630.97;10378184;28;20958;-57
2023/08/31 20:11:15;;;;;;;8.77;4.07;;;;;;;18.83;74.90;97643.88;10372937;28;20123;-54
2023/08/31 20:16:14;;;;;;;9.20;4.15;;;;;;;18.92;73.78;97648.78;10382233;28;20067;-54
2023/08/31 20:21:15;;;;;;;7.78;4.55;;;;;;;18.93;72.95;97650.50;10361736;28;20100;-59
2023/08/31 20:26:24;;;;;;;7.32;4.13;;;;;;;18.75;72.52;97632.75;10361220;28;20107;-53
2023/08/31 20:31:23;;;;;;;8.55;4.90;;;;;;;18.91;72.20;97665.47;10360763;28;20150;-53
2023/08/31 20:36:22;;;;;;;10.80;5.68;;;;;;;18.91;74.86;97676.00;10361317;28;20069;-53
2023/08/31 20:41:21;;;;;;;13.57;5.75;;;;;;;18.84;75.81;97677.13;10360990;28;20040;-53
2023/08/31 20:46:20;;;;;;;12.20;6.40;;;;;;;18.70;76.27;97658.34;10359831;28;20115;-52
2023/08/31 20:51:19;;;;;;;11.70;5.85;;;;;;;18.81;76.77;97687.75;10367392;28;20036;-53
2023/08/31 20:56:20;;;;;;;10.02;5.10;;;;;;;18.57;77.60;97653.50;10360370;28;20437;-54
2023/08/31 21:01:23;;;;;;;11.55;5.38;;;;;;;18.77;77.53;97683.50;10367131;28;20080;-53
2023/08/31 21:06:28;;;;;;;12.50;5.93;;;;;;;18.44;77.26;97646.94;10358708;28;20123;-52
2023/08/31 21:11:27;;;;;;;14.32;5.10;;;;;;;18.70;77.21;97706.53;10359998;28;20068;-52
2023/08/31 21:16:26;;;;;;;8.75;5.03;;;;;;;18.69;75.44;97714.44;10368471;28;20029;-53
2023/08/31 21:21:25;;;;;;;11.68;5.53;;;;;;;18.26;80.29;97719.34;10359207;28;20060;-53
2023/08/31 21:26:24;;;;;;;13.25;5.93;;;;;;;18.25;80.54;97729.91;10366006;28;20029;-53
2023/08/31 21:31:23;;;;;;;11.88;6.13;;;;;;;18.11;81.41;97743.50;10377740;28;20028;-55
2023/08/31 21:36:22;;;;;;;10.95;5.32;;;;;;;18.06;81.79;97748.88;10367565;28;20028;-54
2023/08/31 21:41:21;;;;;;;12.60;5.57;;;;;;;17.99;82.14;97749.97;10367821;28;20577;-53
2023/08/31 21:46:21;;;;;;;11.15;5.63;;;;;;;17.19;81.53;97629.03;10354315;28;20037;-54
2023/08/31 21:51:21;;;;;;;12.73;5.95;;;;;;;17.99;81.09;97760.47;10366796;28;20068;-54
2023/08/31 21:56:20;;;;;;;10.10;5.93;;;;;;;17.86;82.00;97748.63;10367007;28;20551;-54
2023/08/31 22:01:20;;;;;;;11.50;5.93;;;;;;;17.90;81.66;97760.75;10365652;28;20105;-54
2023/08/31 22:06:19;;;;;;;10.43;6.82;;;;;;;17.94;81.90;97773.75;10374182;28;20466;-54
2023/08/31 22:11:20;;;;;;;10.45;5.47;;;;;;;17.95;83.35;97777.22;10356336;28;20180;-54
2023/08/31 22:16:19;;;;;;;9.15;5.95;;;;;;;17.89;82.94;97787.91;10370064;28;20107;-57
2023/08/31 22:21:18;;;;;;;12.90;6.10;;;;;;;17.82;83.30;97786.38;10364360;28;20530;-54
2023/08/31 22:26:17;;;;;;;10.48;6.03;;;;;;;17.70;84.02;97796.28;10367749;28;20123;-54
2023/08/31 22:31:16;;;;;;;15.43;6.68;;;;;;;17.68;83.71;97800.75;10367623;28;20554;-54
2023/08/31 22:36:15;;;;;;;8.45;5.38;;;;;;;17.56;83.75;97796.69;10377739;28;20470;-54
2023/08/31 22:41:14;;;;;;;8.25;4.68;;;;;;;17.58;82.79;97783.53;10368053;28;20487;-53
2023/08/31 22:46:13;;;;;;;10.30;5.35;;;;;;;17.47;81.91;97772.47;10368362;28;20039;-53
2023/08/31 22:51:12;;;;;;;8.38;4.70;;;;;;;17.55;81.06;97796.75;10375013;28;20021;-53
2023/08/31 22:56:11;;;;;;;10.43;4.55;;;;;;;17.50;79.94;97793.41;10389814;28;20035;-53
2023/08/31 23:01:10;;;;;;;6.28;4.20;;;;;;;17.39;78.59;97780.56;10369989;28;20107;-53
2023/08/31 23:06:09;;;;;;;7.15;3.85;;;;;;;17.37;78.72;97790.22;10379728;28;20108;-52